Time;durP1;ratioP1;P1;durP2;ratioP2;P2;SDS_P1;SDS_P2;PMS_P1;PMS_P2;Temp;Humidity;BMP_temperature;BMP_pressure;BME280_temperature;BME280_humidity;BME280_pressure;Samples;Min_cycle;Max_cycle;Signal;HPM_P1;HPM_P2
2021/05/23 00:01:45;;;;;;;7.95;1.92;;;;;;;;;;5018364;28;20503;-62
2021/05/23 00:04:11;;;;;;;6.75;3.08;;;;;;;;;;5018640;28;20060;-62
2021/05/23 00:06:36;;;;;;;11.68;2.75;;;;;;;;;;5017744;28;20033;-62
2021/05/23 00:09:02;;;;;;;4.07;1.80;;;;;;;;;;5007279;28;20123;-61
2021/05/23 00:11:28;;;;;;;5.80;2.50;;;;;;;;;;5018854;28;20109;-61
2021/05/23 00:13:56;;;;;;;3.55;1.90;;;;;;;;;;5033364;28;20045;-61
2021/05/23 00:16:23;;;;;;;3.35;1.80;;;;;;;;;;5023162;28;20086;-61
2021/05/23 00:18:52;;;;;;;7.60;2.28;;;;;;;;;;5019651;28;20036;-61
2021/05/23 00:21:19;;;;;;;3.55;1.58;;;;;;;;;;5020661;28;20038;-61
2021/05/23 00:23:45;;;;;;;14.52;2.70;;;;;;;;;;5016151;28;20129;-60
2021/05/23 00:26:16;;;;;;;14.35;2.30;;;;;;;;;;5020028;28;20107;-61
2021/05/23 00:28:49;;;;;;;4.93;2.13;;;;;;;;;;5018943;28;20444;-61
2021/05/23 00:31:19;;;;;;;8.80;1.85;;;;;;;;;;5008609;28;20037;-62
2021/05/23 00:33:45;;;;;;;6.38;2.05;;;;;;;;;;5008298;28;20041;-61
2021/05/23 00:36:10;;;;;;;5.63;1.80;;;;;;;;;;5020726;28;20039;-61
2021/05/23 00:38:39;;;;;;;9.75;2.72;;;;;;;;;;5019840;28;20075;-61
2021/05/23 00:41:06;;;;;;;9.68;2.28;;;;;;;;;;5019009;28;20036;-63
2021/05/23 00:43:32;;;;;;;8.20;2.35;;;;;;;;;;5025439;28;20033;-61
2021/05/23 00:45:58;;;;;;;5.88;2.22;;;;;;;;;;5003647;28;21009;-61
2021/05/23 00:48:23;;;;;;;3.47;2.13;;;;;;;;;;5017247;28;20025;-61
2021/05/23 00:50:52;;;;;;;8.52;2.15;;;;;;;;;;5019127;28;20029;-62
2021/05/23 00:53:17;;;;;;;4.68;3.00;;;;;;;;;;5020152;28;20059;-62
2021/05/23 00:55:43;;;;;;;6.68;2.20;;;;;;;;;;5020166;28;20025;-61
2021/05/23 00:58:14;;;;;;;5.45;2.47;;;;;;;;;;5015813;28;20112;-61
2021/05/23 01:00:39;;;;;;;8.80;2.08;;;;;;;;;;5019206;28;20146;-62
2021/05/23 01:03:28;;;;;;;10.80;2.60;;;;;;;;;;5017271;28;20116;-62
2021/05/23 01:05:54;;;;;;;4.85;1.63;;;;;;;;;;5008178;28;20095;-61
2021/05/23 01:08:21;;;;;;;7.78;2.35;;;;;;;;;;5032650;28;20099;-61
2021/05/23 01:10:59;;;;;;;6.80;2.28;;;;;;;;;;5019246;28;20066;-61
2021/05/23 01:13:43;;;;;;;7.93;2.20;;;;;;;;;;5017825;28;20072;-62
2021/05/23 01:16:13;;;;;;;9.50;2.97;;;;;;;;;;5021021;28;20043;-61
2021/05/23 01:18:42;;;;;;;10.20;2.40;;;;;;;;;;5024763;28;20291;-63
2021/05/23 01:21:08;;;;;;;4.82;2.47;;;;;;;;;;5019142;28;20029;-61
2021/05/23 01:23:46;;;;;;;5.93;2.90;;;;;;;;;;5020306;28;20936;-61
2021/05/23 01:26:15;;;;;;;6.68;2.78;;;;;;;;;;5038029;28;20037;-62
2021/05/23 01:28:41;;;;;;;20.65;3.40;;;;;;;;;;5003992;28;20124;-62
2021/05/23 01:31:09;;;;;;;6.97;2.53;;;;;;;;;;5022989;28;20047;-62
2021/05/23 01:33:37;;;;;;;4.28;2.75;;;;;;;;;;5022915;28;20041;-62
2021/05/23 01:36:04;;;;;;;12.13;2.70;;;;;;;;;;5023548;28;20044;-61
2021/05/23 01:38:31;;;;;;;14.30;3.28;;;;;;;;;;5021712;28;20391;-60
2021/05/23 01:41:00;;;;;;;12.75;3.05;;;;;;;;;;5024425;28;20492;-62
2021/05/23 01:43:28;;;;;;;10.05;2.95;;;;;;;;;;5017957;28;20106;-63
2021/05/23 01:45:55;;;;;;;8.02;2.83;;;;;;;;;;5021310;28;20132;-61
2021/05/23 01:48:21;;;;;;;8.70;2.97;;;;;;;;;;5022640;28;20029;-61
2021/05/23 01:50:46;;;;;;;12.02;2.25;;;;;;;;;;5022295;28;20128;-61
2021/05/23 01:53:12;;;;;;;7.85;2.92;;;;;;;;;;5018899;28;20025;-61
2021/05/23 01:55:38;;;;;;;17.45;3.10;;;;;;;;;;5020484;28;20125;-61
2021/05/23 01:58:07;;;;;;;7.22;2.63;;;;;;;;;;5034606;28;20033;-62
2021/05/23 02:00:35;;;;;;;11.90;2.67;;;;;;;;;;5020900;28;20094;-62
2021/05/23 02:03:02;;;;;;;6.88;2.15;;;;;;;;;;5036750;28;20035;-62
2021/05/23 02:05:32;;;;;;;12.30;2.80;;;;;;;;;;5023754;28;20025;-62
2021/05/23 02:07:58;;;;;;;8.43;2.03;;;;;;;;;;5021976;28;20021;-61
2021/05/23 02:10:24;;;;;;;9.27;2.25;;;;;;;;;;5022540;28;20063;-62
2021/05/23 02:12:57;;;;;;;13.32;2.53;;;;;;;;;;5027274;28;20028;-61
2021/05/23 02:15:23;;;;;;;5.97;2.33;;;;;;;;;;5002675;28;20060;-62
2021/05/23 02:17:51;;;;;;;7.55;2.25;;;;;;;;;;5022043;28;20061;-63
2021/05/23 02:20:18;;;;;;;9.57;2.53;;;;;;;;;;5021131;28;20606;-61
2021/05/23 02:22:46;;;;;;;2.60;1.98;;;;;;;;;;5009207;28;20032;-61
2021/05/23 02:25:15;;;;;;;5.50;2.30;;;;;;;;;;5021420;28;20056;-61
2021/05/23 02:27:44;;;;;;;4.60;2.35;;;;;;;;;;5021606;28;20046;-61
2021/05/23 02:30:12;;;;;;;11.80;2.63;;;;;;;;;;5021081;28;20036;-62
2021/05/23 02:32:38;;;;;;;3.33;2.33;;;;;;;;;;5023009;28;20044;-61
2021/05/23 02:35:06;;;;;;;3.72;2.25;;;;;;;;;;5020117;28;20037;-62
2021/05/23 02:37:34;;;;;;;4.32;2.05;;;;;;;;;;5019134;28;20026;-61
2021/05/23 02:40:00;;;;;;;5.97;2.40;;;;;;;;;;5025422;28;20025;-62
2021/05/23 02:42:26;;;;;;;5.05;2.38;;;;;;;;;;5020708;28;20376;-61
2021/05/23 02:44:52;;;;;;;6.80;2.50;;;;;;;;;;5020070;28;20036;-62
2021/05/23 02:47:18;;;;;;;11.18;2.35;;;;;;;;;;5036375;28;21179;-61
2021/05/23 02:49:46;;;;;;;6.65;2.40;;;;;;;;;;5021315;28;20476;-61
2021/05/23 02:52:11;;;;;;;12.48;2.72;;;;;;;;;;5020046;28;20025;-61
2021/05/23 02:54:38;;;;;;;8.35;2.33;;;;;;;;;;5035696;28;20040;-62
2021/05/23 02:57:06;;;;;;;11.88;3.00;;;;;;;;;;5019124;28;20029;-61
2021/05/23 02:59:32;;;;;;;7.28;2.42;;;;;;;;;;5020229;28;20029;-62
2021/05/23 03:01:58;;;;;;;6.82;2.17;;;;;;;;;;5009058;28;20032;-62
2021/05/23 03:04:26;;;;;;;12.93;3.08;;;;;;;;;;5035932;28;20041;-61
2021/05/23 03:06:54;;;;;;;7.07;2.33;;;;;;;;;;5022507;28;20036;-61
2021/05/23 03:09:20;;;;;;;5.00;2.08;;;;;;;;;;5024176;28;20026;-61
2021/05/23 03:11:46;;;;;;;6.35;2.50;;;;;;;;;;5021640;28;20032;-61
2021/05/23 03:14:13;;;;;;;4.05;1.75;;;;;;;;;;4990769;28;20151;-62
2021/05/23 03:16:39;;;;;;;9.43;2.80;;;;;;;;;;5020078;28;20029;-61
2021/05/23 03:19:04;;;;;;;4.40;2.50;;;;;;;;;;5020243;28;20097;-62
2021/05/23 03:21:30;;;;;;;8.25;2.50;;;;;;;;;;5037021;28;20480;-63
2021/05/23 03:23:55;;;;;;;10.23;2.40;;;;;;;;;;5010974;28;20145;-62
2021/05/23 03:26:23;;;;;;;7.32;2.70;;;;;;;;;;5020742;28;20028;-61
2021/05/23 03:28:48;;;;;;;9.75;2.70;;;;;;;;;;4990894;28;20040;-61
2021/05/23 03:31:14;;;;;;;3.65;2.03;;;;;;;;;;5021624;28;20033;-62
2021/05/23 03:33:40;;;;;;;10.35;2.78;;;;;;;;;;5018307;28;20037;-61
2021/05/23 03:36:09;;;;;;;14.80;3.60;;;;;;;;;;5020406;28;20040;-63
2021/05/23 03:38:35;;;;;;;11.32;2.58;;;;;;;;;;5018628;28;20041;-62
2021/05/23 03:41:01;;;;;;;8.23;3.03;;;;;;;;;;5021908;28;20025;-62
2021/05/23 03:43:27;;;;;;;7.13;2.60;;;;;;;;;;5017372;28;20178;-60
2021/05/23 03:45:53;;;;;;;9.07;3.20;;;;;;;;;;5024159;28;20068;-61
2021/05/23 03:48:20;;;;;;;11.40;3.03;;;;;;;;;;5021160;28;20120;-62
2021/05/23 03:50:46;;;;;;;7.55;2.38;;;;;;;;;;5006649;28;20381;-60
2021/05/23 03:53:14;;;;;;;5.80;2.17;;;;;;;;;;5019039;28;20128;-61
2021/05/23 03:55:40;;;;;;;5.38;2.53;;;;;;;;;;5027064;28;20047;-61
2021/05/23 03:58:11;;;;;;;3.85;2.42;;;;;;;;;;5033465;28;20021;-61
2021/05/23 04:00:36;;;;;;;11.23;3.67;;;;;;;;;;5019831;28;20048;-61
2021/05/23 04:03:03;;;;;;;8.07;2.63;;;;;;;;;;5007973;28;20033;-61
2021/05/23 04:05:31;;;;;;;5.97;2.85;;;;;;;;;;5021539;28;20027;-62
2021/05/23 04:08:00;;;;;;;3.90;2.42;;;;;;;;;;5002868;28;20036;-61
2021/05/23 04:10:28;;;;;;;10.48;3.05;;;;;;;;;;5017243;28;20091;-61
2021/05/23 04:12:57;;;;;;;8.23;2.95;;;;;;;;;;5034052;28;20036;-61
2021/05/23 04:15:23;;;;;;;7.57;2.50;;;;;;;;;;5016920;28;20065;-60
2021/05/23 04:17:48;;;;;;;10.05;2.33;;;;;;;;;;5020657;28;20037;-61
2021/05/23 04:20:15;;;;;;;9.25;2.75;;;;;;;;;;5019749;28;20056;-61
2021/05/23 04:22:46;;;;;;;9.30;2.42;;;;;;;;;;5018090;28;20803;-60
2021/05/23 04:25:14;;;;;;;10.73;2.95;;;;;;;;;;5007611;28;20028;-61
2021/05/23 04:27:44;;;;;;;5.75;2.25;;;;;;;;;;5017740;28;20174;-61
2021/05/23 04:30:10;;;;;;;4.88;2.85;;;;;;;;;;5024192;28;20033;-61
2021/05/23 04:32:36;;;;;;;10.35;2.28;;;;;;;;;;5007101;28;20056;-63
2021/05/23 04:35:03;;;;;;;8.93;2.90;;;;;;;;;;5016631;28;20032;-61
2021/05/23 04:37:31;;;;;;;5.97;2.13;;;;;;;;;;5024364;28;20031;-62
2021/05/23 04:39:59;;;;;;;8.00;2.58;;;;;;;;;;5024223;28;21991;-62
2021/05/23 04:42:24;;;;;;;9.27;2.72;;;;;;;;;;5018801;28;20124;-61
2021/05/23 04:44:50;;;;;;;8.98;2.28;;;;;;;;;;5035026;28;20029;-61
2021/05/23 04:47:18;;;;;;;7.55;3.08;;;;;;;;;;5020035;28;20029;-62
2021/05/23 04:49:47;;;;;;;5.50;2.22;;;;;;;;;;5019779;28;20021;-62
2021/05/23 04:52:13;;;;;;;5.85;2.75;;;;;;;;;;5006994;28;20029;-61
2021/05/23 04:54:40;;;;;;;6.78;2.03;;;;;;;;;;5020518;28;20138;-61
2021/05/23 04:57:06;;;;;;;5.75;2.22;;;;;;;;;;5027601;28;20021;-62
2021/05/23 04:59:34;;;;;;;4.43;1.98;;;;;;;;;;5029176;28;20014;-61
2021/05/23 05:01:59;;;;;;;6.95;2.40;;;;;;;;;;5021223;28;20022;-62
2021/05/23 05:04:27;;;;;;;4.47;2.47;;;;;;;;;;5023784;28;21695;-62
2021/05/23 05:06:53;;;;;;;5.57;1.83;;;;;;;;;;5007586;28;20080;-61
2021/05/23 05:09:19;;;;;;;6.03;2.17;;;;;;;;;;5022705;28;20033;-62
2021/05/23 05:11:44;;;;;;;3.20;1.98;;;;;;;;;;5024357;28;20029;-64
2021/05/23 05:14:10;;;;;;;9.10;2.10;;;;;;;;;;5022248;28;21316;-61
2021/05/23 05:16:39;;;;;;;13.82;2.30;;;;;;;;;;5021720;28;20037;-61
2021/05/23 05:19:05;;;;;;;9.25;1.80;;;;;;;;;;5022731;28;20029;-63
2021/05/23 05:21:30;;;;;;;4.28;1.60;;;;;;;;;;5023446;28;20289;-61
2021/05/23 05:23:56;;;;;;;3.63;1.33;;;;;;;;;;5023198;28;20697;-61
2021/05/23 05:26:23;;;;;;;11.07;1.85;;;;;;;;;;5038238;28;20042;-61
2021/05/23 05:28:49;;;;;;;7.80;1.75;;;;;;;;;;5020708;28;20051;-62
2021/05/23 05:31:15;;;;;;;4.80;1.70;;;;;;;;;;5019299;28;20025;-62
2021/05/23 05:33:41;;;;;;;2.88;1.42;;;;;;;;;;5021452;28;20771;-63
2021/05/23 05:36:07;;;;;;;6.95;1.85;;;;;;;;;;5020879;28;20041;-62
2021/05/23 05:38:32;;;;;;;4.43;1.65;;;;;;;;;;5022643;28;20037;-61
2021/05/23 05:40:58;;;;;;;2.97;1.50;;;;;;;;;;5023217;28;20033;-62
2021/05/23 05:43:24;;;;;;;6.18;1.50;;;;;;;;;;5027388;28;20072;-62
2021/05/23 05:45:52;;;;;;;4.32;1.60;;;;;;;;;;5003130;28;20017;-63
2021/05/23 05:48:18;;;;;;;7.68;1.83;;;;;;;;;;5022711;28;20061;-62
2021/05/23 05:50:44;;;;;;;6.07;1.67;;;;;;;;;;5022548;28;20029;-62
2021/05/23 05:53:12;;;;;;;2.47;0.98;;;;;;;;;;5019394;28;20021;-62
2021/05/23 05:55:37;;;;;;;8.77;1.38;;;;;;;;;;5006416;28;20044;-63
2021/05/23 05:58:05;;;;;;;4.63;1.23;;;;;;;;;;5037711;28;20434;-61
2021/05/23 06:00:38;;;;;;;4.90;1.30;;;;;;;;;;5024861;28;20033;-62
2021/05/23 06:03:04;;;;;;;3.90;1.00;;;;;;;;;;5019633;28;20060;-62
2021/05/23 06:05:29;;;;;;;4.45;1.38;;;;;;;;;;5020682;28;20508;-63
2021/05/23 06:07:55;;;;;;;2.92;1.65;;;;;;;;;;5021903;28;20119;-62
2021/05/23 06:10:20;;;;;;;4.07;1.17;;;;;;;;;;5008086;28;20045;-63
2021/05/23 06:12:46;;;;;;;6.75;1.20;;;;;;;;;;5026310;28;20083;-62
2021/05/23 06:15:12;;;;;;;3.55;1.48;;;;;;;;;;5017914;28;20115;-62
2021/05/23 06:17:40;;;;;;;1.85;0.88;;;;;;;;;;5003473;28;20033;-62
2021/05/23 06:20:08;;;;;;;2.10;0.82;;;;;;;;;;5022112;28;20480;-63
2021/05/23 06:22:34;;;;;;;7.10;0.77;;;;;;;;;;5021192;28;20936;-63
2021/05/23 06:25:00;;;;;;;3.83;0.90;;;;;;;;;;5034003;28;20032;-63
2021/05/23 06:27:28;;;;;;;5.30;1.00;;;;;;;;;;5020937;28;20126;-62
2021/05/23 06:29:53;;;;;;;3.17;1.10;;;;;;;;;;5007038;28;20075;-63
2021/05/23 06:32:19;;;;;;;1.13;0.77;;;;;;;;;;5017959;28;20680;-60
2021/05/23 06:34:45;;;;;;;6.40;1.35;;;;;;;;;;5004338;28;20161;-63
2021/05/23 06:37:11;;;;;;;5.38;0.95;;;;;;;;;;5006912;28;20033;-62
2021/05/23 06:39:38;;;;;;;5.20;1.00;;;;;;;;;;4993704;28;20030;-62
2021/05/23 06:42:04;;;;;;;3.78;1.02;;;;;;;;;;5025105;28;20033;-62
2021/05/23 06:44:30;;;;;;;2.78;1.23;;;;;;;;;;5017217;28;20040;-62
2021/05/23 06:46:55;;;;;;;4.45;1.55;;;;;;;;;;5000320;28;20025;-63
2021/05/23 06:49:23;;;;;;;3.20;1.17;;;;;;;;;;5016867;28;20076;-62
2021/05/23 06:51:49;;;;;;;3.03;1.42;;;;;;;;;;5013675;28;20036;-62
2021/05/23 06:54:14;;;;;;;3.05;1.40;;;;;;;;;;5000051;28;20028;-62
2021/05/23 06:56:40;;;;;;;4.28;0.70;;;;;;;;;;5000158;28;20070;-63
2021/05/23 06:59:06;;;;;;;3.15;0.98;;;;;;;;;;5008621;28;20430;-63
2021/05/23 07:01:34;;;;;;;2.38;0.80;;;;;;;;;;5013540;28;20021;-62
2021/05/23 07:03:59;;;;;;;3.05;1.20;;;;;;;;;;4993259;28;20161;-62
2021/05/23 07:06:25;;;;;;;3.90;0.90;;;;;;;;;;5011710;28;20024;-62
2021/05/23 07:08:50;;;;;;;7.60;1.10;;;;;;;;;;5013300;28;20037;-63
2021/05/23 07:11:16;;;;;;;7.60;1.38;;;;;;;;;;5019218;28;20033;-63
2021/05/23 07:13:44;;;;;;;1.98;1.08;;;;;;;;;;5016201;28;20061;-63
2021/05/23 07:16:10;;;;;;;7.25;0.98;;;;;;;;;;5015808;28;20059;-63
2021/05/23 07:18:35;;;;;;;2.55;0.98;;;;;;;;;;5011736;28;20025;-64
2021/05/23 07:21:01;;;;;;;4.40;1.05;;;;;;;;;;4996124;28;20239;-64
2021/05/23 07:23:30;;;;;;;4.10;0.95;;;;;;;;;;5010169;28;21028;-64
2021/05/23 07:25:55;;;;;;;3.72;0.73;;;;;;;;;;5021177;28;20120;-63
2021/05/23 07:28:21;;;;;;;5.85;0.73;;;;;;;;;;5017385;28;20037;-63
2021/05/23 07:30:46;;;;;;;5.90;0.90;;;;;;;;;;5007471;28;20655;-62
2021/05/23 07:33:16;;;;;;;4.45;1.10;;;;;;;;;;5014578;28;20032;-62
2021/05/23 07:35:41;;;;;;;4.10;1.17;;;;;;;;;;4999158;28;20029;-62
2021/05/23 07:38:07;;;;;;;1.33;0.88;;;;;;;;;;5016800;28;20029;-62
2021/05/23 07:40:36;;;;;;;3.83;1.25;;;;;;;;;;5015188;28;20016;-62
2021/05/23 07:43:05;;;;;;;2.25;0.93;;;;;;;;;;5013715;28;20033;-62
2021/05/23 07:45:31;;;;;;;2.97;1.15;;;;;;;;;;5011000;28;20480;-63
2021/05/23 07:47:59;;;;;;;5.43;1.25;;;;;;;;;;5014939;28;20054;-63
2021/05/23 07:50:25;;;;;;;6.72;1.30;;;;;;;;;;5013985;28;20025;-62
2021/05/23 07:52:51;;;;;;;4.00;1.70;;;;;;;;;;5034475;28;20479;-63
2021/05/23 07:55:19;;;;;;;3.08;1.20;;;;;;;;;;5019294;28;20021;-62
2021/05/23 07:57:46;;;;;;;2.35;1.05;;;;;;;;;;5011594;28;20109;-62
2021/05/23 08:00:11;;;;;;;4.63;1.50;;;;;;;;;;4998436;28;20037;-62
2021/05/23 08:02:39;;;;;;;1.73;1.10;;;;;;;;;;4995936;28;20113;-62
2021/05/23 08:05:05;;;;;;;3.20;1.25;;;;;;;;;;5024946;28;20064;-62
2021/05/23 08:07:31;;;;;;;3.00;1.00;;;;;;;;;;5010701;28;20025;-63
2021/05/23 08:10:01;;;;;;;5.38;1.35;;;;;;;;;;5012170;28;20153;-63
2021/05/23 08:12:30;;;;;;;3.28;0.80;;;;;;;;;;5012605;28;20758;-64
2021/05/23 08:14:55;;;;;;;3.78;1.10;;;;;;;;;;5022593;28;20056;-62
2021/05/23 08:17:21;;;;;;;2.05;1.00;;;;;;;;;;5010309;28;20030;-63
2021/05/23 08:19:47;;;;;;;2.38;1.17;;;;;;;;;;5018591;28;20028;-62
2021/05/23 08:22:13;;;;;;;3.30;1.55;;;;;;;;;;5017255;28;20021;-61
2021/05/23 08:24:43;;;;;;;2.75;1.38;;;;;;;;;;5025661;28;20017;-62
2021/05/23 08:27:09;;;;;;;7.28;1.80;;;;;;;;;;5015375;28;20052;-62
2021/05/23 08:29:35;;;;;;;2.17;1.52;;;;;;;;;;5022825;28;20028;-63
2021/05/23 08:32:00;;;;;;;5.63;1.42;;;;;;;;;;5004994;28;20041;-61
2021/05/23 08:34:26;;;;;;;5.68;1.85;;;;;;;;;;5016482;28;20155;-62
2021/05/23 08:36:52;;;;;;;5.15;1.50;;;;;;;;;;5016853;28;20036;-61
2021/05/23 08:39:18;;;;;;;8.15;1.77;;;;;;;;;;5022392;28;20065;-61
2021/05/23 08:41:48;;;;;;;6.55;2.25;;;;;;;;;;5008019;28;20119;-62
2021/05/23 08:44:20;;;;;;;8.30;2.10;;;;;;;;;;5018824;28;20038;-61
2021/05/23 08:46:46;;;;;;;9.13;2.28;;;;;;;;;;4998508;28;20048;-60
2021/05/23 08:49:16;;;;;;;5.45;3.13;;;;;;;;;;5015115;28;20028;-61
2021/05/23 08:51:42;;;;;;;7.53;2.88;;;;;;;;;;5016166;28;20052;-60
2021/05/23 08:54:18;;;;;;;6.40;3.00;;;;;;;;;;5017943;28;20520;-61
2021/05/23 08:56:45;;;;;;;15.90;3.97;;;;;;;;;;5016938;28;20036;-61
2021/05/23 08:59:11;;;;;;;6.22;3.38;;;;;;;;;;5013376;28;20029;-61
2021/05/23 09:01:38;;;;;;;8.77;3.40;;;;;;;;;;5013673;28;20025;-61
2021/05/23 09:04:05;;;;;;;6.30;3.15;;;;;;;;;;5014217;28;20143;-60
2021/05/23 09:06:34;;;;;;;11.40;3.50;;;;;;;;;;5012494;28;20117;-60
2021/05/23 09:09:20;;;;;;;4.70;2.55;;;;;;;;;;5014712;28;20623;-62
2021/05/23 09:11:53;;;;;;;9.75;3.33;;;;;;;;;;5030560;28;20047;-60
2021/05/23 09:14:41;;;;;;;6.85;2.90;;;;;;;;;;5016599;28;20048;-59
2021/05/23 09:17:17;;;;;;;6.18;3.05;;;;;;;;;;5013892;28;20035;-60
2021/05/23 09:19:43;;;;;;;9.60;2.88;;;;;;;;;;5018305;28;20064;-59
2021/05/23 09:22:13;;;;;;;16.90;3.60;;;;;;;;;;5021420;28;20837;-58
2021/05/23 09:25:05;;;;;;;17.10;4.18;;;;;;;;;;5019851;28;20040;-59
2021/05/23 09:27:32;;;;;;;10.80;3.53;;;;;;;;;;5019828;28;20599;-59
2021/05/23 09:30:06;;;;;;;18.15;3.80;;;;;;;;;;5019299;28;20040;-58
2021/05/23 09:32:41;;;;;;;8.18;2.85;;;;;;;;;;5021571;28;20078;-59
2021/05/23 09:35:10;;;;;;;11.98;2.88;;;;;;;;;;5019027;28;20099;-59
2021/05/23 09:37:35;;;;;;;8.15;2.97;;;;;;;;;;5020742;28;20035;-57
2021/05/23 09:40:14;;;;;;;11.07;3.42;;;;;;;;;;5004405;28;20035;-59
2021/05/23 09:42:46;;;;;;;11.90;3.10;;;;;;;;;;5018742;28;20043;-59
2021/05/23 09:45:14;;;;;;;13.70;3.47;;;;;;;;;;5009860;28;20042;-58
2021/05/23 09:47:49;;;;;;;7.22;3.65;;;;;;;;;;5025709;28;20937;-59
2021/05/23 09:50:15;;;;;;;12.07;3.20;;;;;;;;;;5022190;28;20025;-59
2021/05/23 09:52:43;;;;;;;6.53;3.13;;;;;;;;;;5037727;28;20123;-58
2021/05/23 09:55:14;;;;;;;4.18;2.88;;;;;;;;;;5008110;28;20231;-59
2021/05/23 09:57:40;;;;;;;5.50;2.90;;;;;;;;;;5019010;28;20448;-58
2021/05/23 10:00:12;;;;;;;5.60;2.67;;;;;;;;;;4991993;28;20033;-59
2021/05/23 10:02:56;;;;;;;7.28;3.33;;;;;;;;;;5020221;28;20762;-59
2021/05/23 10:05:24;;;;;;;6.38;3.75;;;;;;;;;;5019389;28;20036;-60
2021/05/23 10:07:50;;;;;;;6.63;2.88;;;;;;;;;;5035951;28;20557;-59
2021/05/23 10:10:16;;;;;;;26.35;4.72;;;;;;;;;;5019423;28;20518;-59
2021/05/23 10:12:42;;;;;;;18.77;3.70;;;;;;;;;;5018559;28;20032;-59
2021/05/23 10:15:11;;;;;;;5.70;2.70;;;;;;;;;;5021200;28;20630;-59
2021/05/23 10:17:37;;;;;;;13.32;4.18;;;;;;;;;;5002158;28;20676;-60
2021/05/23 10:20:07;;;;;;;9.82;2.90;;;;;;;;;;5009689;28;20048;-61
2021/05/23 10:22:37;;;;;;;4.75;3.13;;;;;;;;;;5036590;28;20043;-60
2021/05/23 10:25:04;;;;;;;7.68;3.58;;;;;;;;;;5021616;28;20025;-59
2021/05/23 10:27:31;;;;;;;4.57;3.33;;;;;;;;;;5019943;28;22244;-58
2021/05/23 10:29:58;;;;;;;7.43;3.70;;;;;;;;;;5020489;28;20033;-58
2021/05/23 10:32:31;;;;;;;7.90;3.33;;;;;;;;;;5020079;28;20021;-60
2021/05/23 10:34:59;;;;;;;8.82;3.30;;;;;;;;;;5020199;28;20033;-59
2021/05/23 10:37:26;;;;;;;6.88;2.70;;;;;;;;;;5020441;28;20029;-59
2021/05/23 10:39:54;;;;;;;5.30;3.03;;;;;;;;;;5021373;28;20029;-59
2021/05/23 10:42:20;;;;;;;4.45;3.08;;;;;;;;;;5018800;28;20034;-59
2021/05/23 10:44:47;;;;;;;4.97;2.50;;;;;;;;;;5020546;28;20028;-59
2021/05/23 10:47:22;;;;;;;3.80;2.50;;;;;;;;;;5020601;28;20308;-60
2021/05/23 10:49:51;;;;;;;8.38;3.42;;;;;;;;;;5017216;28;20088;-60
2021/05/23 10:52:17;;;;;;;5.95;2.13;;;;;;;;;;5017502;28;20116;-60
2021/05/23 10:54:55;;;;;;;5.78;2.42;;;;;;;;;;5033924;28;20071;-60
2021/05/23 10:57:20;;;;;;;4.03;2.50;;;;;;;;;;5018187;28;20132;-60
2021/05/23 11:00:00;;;;;;;3.85;2.40;;;;;;;;;;5016614;28;20030;-60
2021/05/23 11:02:35;;;;;;;4.50;1.80;;;;;;;;;;5019400;28;20132;-60
2021/05/23 11:05:04;;;;;;;4.00;2.05;;;;;;;;;;5018434;28;20065;-61
2021/05/23 11:07:30;;;;;;;2.55;1.65;;;;;;;;;;5014594;28;20047;-61
2021/05/23 11:09:55;;;;;;;2.08;1.30;;;;;;;;;;5035383;28;20028;-62
2021/05/23 11:12:21;;;;;;;1.65;1.38;;;;;;;;;;5020256;28;20088;-62
2021/05/23 11:14:56;;;;;;;1.60;1.25;;;;;;;;;;5020582;28;20052;-62
2021/05/23 11:17:22;;;;;;;1.48;1.00;;;;;;;;;;5020504;28;20025;-60
2021/05/23 11:19:50;;;;;;;0.70;0.70;;;;;;;;;;5031680;28;20025;-60
2021/05/23 11:22:16;;;;;;;0.65;0.60;;;;;;;;;;5019230;28;20035;-63
2021/05/23 11:24:45;;;;;;;0.60;0.60;;;;;;;;;;5003435;28;20033;-61
2021/05/23 11:27:16;;;;;;;0.70;0.50;;;;;;;;;;5002342;28;20083;-62
2021/05/23 11:29:53;;;;;;;1.52;0.70;;;;;;;;;;5034081;28;20045;-61
2021/05/23 11:32:21;;;;;;;1.73;0.90;;;;;;;;;;5019068;28;20040;-61
2021/05/23 11:34:47;;;;;;;1.17;0.52;;;;;;;;;;5018962;28;20084;-61
2021/05/23 11:37:12;;;;;;;1.67;0.60;;;;;;;;;;5019763;28;20425;-62
2021/05/23 11:39:38;;;;;;;0.85;0.77;;;;;;;;;;5009040;28;20930;-61
2021/05/23 11:42:05;;;;;;;2.20;0.77;;;;;;;;;;5018328;28;20021;-61
2021/05/23 11:44:37;;;;;;;1.77;0.70;;;;;;;;;;5035414;28;20036;-62
2021/05/23 11:47:06;;;;;;;0.80;0.60;;;;;;;;;;5023373;28;20037;-61
2021/05/23 11:49:33;;;;;;;1.10;0.85;;;;;;;;;;5019328;28;20028;-61
2021/05/23 11:52:04;;;;;;;1.70;1.05;;;;;;;;;;5019266;28;20048;-61
2021/05/23 11:54:30;;;;;;;0.77;0.77;;;;;;;;;;5017538;28;20126;-62
2021/05/23 11:56:58;;;;;;;1.63;1.00;;;;;;;;;;5004492;28;20033;-62
2021/05/23 11:59:29;;;;;;;1.63;1.30;;;;;;;;;;5025076;28;20025;-61
2021/05/23 12:01:59;;;;;;;1.40;1.25;;;;;;;;;;5004590;28;20037;-61
2021/05/23 12:04:24;;;;;;;2.95;1.58;;;;;;;;;;5024466;28;20692;-62
2021/05/23 12:06:52;;;;;;;1.58;1.48;;;;;;;;;;5014559;28;20098;-60
2021/05/23 12:09:23;;;;;;;1.80;1.70;;;;;;;;;;5003584;28;20136;-61
2021/05/23 12:11:58;;;;;;;2.55;1.65;;;;;;;;;;5022621;28;20037;-62
2021/05/23 12:14:26;;;;;;;2.42;2.10;;;;;;;;;;5018429;28;20057;-61
2021/05/23 12:17:02;;;;;;;1.98;1.60;;;;;;;;;;5017709;28;20118;-61
2021/05/23 12:19:47;;;;;;;2.58;1.98;;;;;;;;;;5018064;28;20120;-61
2021/05/23 12:22:15;;;;;;;2.03;1.88;;;;;;;;;;5031699;28;20032;-62
2021/05/23 12:24:41;;;;;;;2.28;1.90;;;;;;;;;;5017943;28;20163;-62
2021/05/23 12:27:07;;;;;;;2.65;2.45;;;;;;;;;;5015234;28;20036;-62
2021/05/23 12:29:35;;;;;;;3.47;2.33;;;;;;;;;;5035537;28;20395;-60
2021/05/23 12:32:05;;;;;;;2.47;2.17;;;;;;;;;;5016545;28;20039;-61
2021/05/23 12:34:31;;;;;;;4.43;2.05;;;;;;;;;;5019822;28;20040;-62
2021/05/23 12:37:00;;;;;;;1.80;1.65;;;;;;;;;;5003842;28;20025;-62
2021/05/23 12:39:26;;;;;;;2.25;1.67;;;;;;;;;;5023954;28;20029;-62
2021/05/23 12:41:53;;;;;;;2.13;1.80;;;;;;;;;;5001426;28;20757;-64
2021/05/23 12:44:20;;;;;;;1.52;1.42;;;;;;;;;;5017672;28;20103;-62
2021/05/23 12:46:48;;;;;;;1.90;1.63;;;;;;;;;;5029832;28;20033;-63
2021/05/23 12:49:17;;;;;;;2.35;1.77;;;;;;;;;;5018420;28;20040;-62
2021/05/23 12:51:44;;;;;;;2.53;1.58;;;;;;;;;;5013471;28;20033;-61
2021/05/23 12:54:10;;;;;;;3.88;1.83;;;;;;;;;;5018698;28;20507;-62
2021/05/23 12:56:47;;;;;;;1.95;1.55;;;;;;;;;;5014619;28;20548;-60
2021/05/23 12:59:15;;;;;;;4.53;2.03;;;;;;;;;;5015174;28;20035;-62
2021/05/23 13:01:42;;;;;;;1.75;1.63;;;;;;;;;;5014280;28;20034;-60
2021/05/23 13:04:12;;;;;;;4.40;1.80;;;;;;;;;;5017512;28;20409;-63
2021/05/23 13:06:39;;;;;;;2.45;0.73;;;;;;;;;;5016188;28;20033;-63
2021/05/23 13:09:05;;;;;;;3.72;1.20;;;;;;;;;;5016045;28;20061;-62
2021/05/23 13:11:32;;;;;;;3.83;1.63;;;;;;;;;;5032907;28;20841;-63
2021/05/23 13:14:00;;;;;;;1.48;1.25;;;;;;;;;;5002424;28;20027;-61
2021/05/23 13:16:30;;;;;;;3.03;1.63;;;;;;;;;;5024167;28;20040;-62
2021/05/23 13:18:56;;;;;;;2.53;1.73;;;;;;;;;;5021121;28;20033;-62
2021/05/23 13:21:26;;;;;;;3.78;2.20;;;;;;;;;;5027100;28;20044;-60
2021/05/23 13:23:52;;;;;;;1.75;1.48;;;;;;;;;;5037225;28;20048;-61
2021/05/23 13:26:20;;;;;;;1.30;1.20;;;;;;;;;;5026460;28;20033;-61
2021/05/23 13:28:46;;;;;;;2.80;1.73;;;;;;;;;;5004029;28;20033;-61
2021/05/23 13:31:12;;;;;;;2.20;1.70;;;;;;;;;;5005263;28;20044;-60
2021/05/23 13:33:38;;;;;;;1.48;1.38;;;;;;;;;;5010467;28;20857;-62
2021/05/23 13:36:14;;;;;;;2.83;1.23;;;;;;;;;;5020926;28;20032;-63
2021/05/23 13:38:43;;;;;;;1.42;1.33;;;;;;;;;;5011378;28;20032;-63
2021/05/23 13:41:09;;;;;;;3.15;1.52;;;;;;;;;;5021000;28;20022;-63
2021/05/23 13:43:38;;;;;;;1.48;1.23;;;;;;;;;;5020792;28;20024;-61
2021/05/23 13:46:04;;;;;;;5.57;1.70;;;;;;;;;;5022211;28;20046;-62
2021/05/23 13:48:30;;;;;;;3.28;1.60;;;;;;;;;;5022228;28;20558;-63
2021/05/23 13:50:56;;;;;;;1.90;1.60;;;;;;;;;;5020331;28;20103;-61
2021/05/23 13:53:22;;;;;;;1.52;1.33;;;;;;;;;;5021569;28;20033;-64
2021/05/23 13:55:50;;;;;;;4.95;1.65;;;;;;;;;;5027956;28;20030;-63
2021/05/23 13:58:16;;;;;;;0.70;0.70;;;;;;;;;;5019152;28;20040;-62
2021/05/23 14:00:42;;;;;;;2.13;0.77;;;;;;;;;;5008336;28;20065;-63
2021/05/23 14:03:18;;;;;;;0.90;0.75;;;;;;;;;;5025306;28;20099;-61
2021/05/23 14:05:49;;;;;;;1.25;0.82;;;;;;;;;;5019721;28;20025;-62
2021/05/23 14:08:16;;;;;;;2.33;0.90;;;;;;;;;;5019457;28;20033;-63
2021/05/23 14:10:44;;;;;;;1.20;0.80;;;;;;;;;;5006400;28;20381;-62
2021/05/23 14:13:11;;;;;;;1.42;1.13;;;;;;;;;;5020541;28;20032;-63
2021/05/23 14:15:37;;;;;;;3.67;0.98;;;;;;;;;;5020119;28;20045;-62
2021/05/23 14:18:06;;;;;;;1.85;0.75;;;;;;;;;;5031730;28;20033;-63
2021/05/23 14:20:35;;;;;;;1.23;0.93;;;;;;;;;;5019208;28;20036;-63
2021/05/23 14:23:01;;;;;;;1.00;0.80;;;;;;;;;;5035387;28;20037;-62
2021/05/23 14:25:29;;;;;;;2.70;1.25;;;;;;;;;;5019841;28;20549;-64
2021/05/23 14:27:55;;;;;;;3.00;1.67;;;;;;;;;;5017589;28;20105;-62
2021/05/23 14:30:21;;;;;;;1.75;1.50;;;;;;;;;;5025645;28;20101;-61
2021/05/23 14:32:49;;;;;;;3.05;1.35;;;;;;;;;;5019132;28;20153;-61
2021/05/23 14:35:16;;;;;;;3.30;1.85;;;;;;;;;;5020418;28;20037;-61
2021/05/23 14:37:46;;;;;;;1.98;1.45;;;;;;;;;;5021555;28;20033;-63
2021/05/23 14:40:17;;;;;;;3.53;1.65;;;;;;;;;;5021524;28;20037;-61
2021/05/23 14:42:43;;;;;;;1.50;1.10;;;;;;;;;;5004864;28;20047;-63
2021/05/23 14:45:09;;;;;;;2.08;1.25;;;;;;;;;;5025915;28;20025;-61